TAF KELD
KELD 280521Z 2806/2906 23004KT P6SM -RA OVC050 FM281000 VRB03KT 6SM -RA BR BKN018 TEMPO 2810/2813 5SM -RA BR BKN007 FM281300 VRB03KT 4SM BR OVC007 FM281600 34004KT P6SM SCT015 FM281800 35006KT P6SM SKC FM290000 VRB03KT P6SM SKC=
METAR KELD
WC KELD
WS KELD
WV KELD